sensor_id;sensor_type;location;lat;lon;timestamp;P1;durP1;ratioP1;P2;durP2;ratioP2
45784;SDS011;31489;51.404;5.474;2022-12-07T00:01:07;6.65;;;4.18;;
45784;SDS011;31489;51.404;5.474;2022-12-07T00:03:36;7.05;;;4.93;;
45784;SDS011;31489;51.404;5.474;2022-12-07T00:06:02;8.10;;;5.40;;
45784;SDS011;31489;51.404;5.474;2022-12-07T00:08:29;10.82;;;5.78;;
45784;SDS011;31489;51.404;5.474;2022-12-07T00:10:58;9.52;;;5.57;;
45784;SDS011;31489;51.404;5.474;2022-12-07T00:13:28;7.78;;;4.90;;
45784;SDS011;31489;51.404;5.474;2022-12-07T00:15:54;7.05;;;4.95;;
45784;SDS011;31489;51.404;5.474;2022-12-07T00:18:20;6.53;;;4.60;;
45784;SDS011;31489;51.404;5.474;2022-12-07T00:20:46;8.55;;;5.57;;
45784;SDS011;31489;51.404;5.474;2022-12-07T00:23:11;7.97;;;4.47;;
45784;SDS011;31489;51.404;5.474;2022-12-07T00:25:37;10.05;;;5.72;;
45784;SDS011;31489;51.404;5.474;2022-12-07T00:28:03;7.38;;;5.00;;
45784;SDS011;31489;51.404;5.474;2022-12-07T00:30:28;8.65;;;4.20;;
45784;SDS011;31489;51.404;5.474;2022-12-07T00:32:54;8.80;;;4.85;;
45784;SDS011;31489;51.404;5.474;2022-12-07T00:35:20;10.93;;;5.28;;
45784;SDS011;31489;51.404;5.474;2022-12-07T00:37:45;6.72;;;4.55;;
45784;SDS011;31489;51.404;5.474;2022-12-07T00:40:11;6.28;;;3.80;;
45784;SDS011;31489;51.404;5.474;2022-12-07T00:42:37;8.75;;;3.90;;
45784;SDS011;31489;51.404;5.474;2022-12-07T00:45:03;6.35;;;3.92;;
45784;SDS011;31489;51.404;5.474;2022-12-07T00:47:28;5.13;;;3.80;;
45784;SDS011;31489;51.404;5.474;2022-12-07T00:49:54;7.38;;;3.65;;
45784;SDS011;31489;51.404;5.474;2022-12-07T00:52:20;5.57;;;3.53;;
45784;SDS011;31489;51.404;5.474;2022-12-07T00:54:45;5.22;;;2.90;;
45784;SDS011;31489;51.404;5.474;2022-12-07T00:57:11;5.05;;;3.42;;
45784;SDS011;31489;51.404;5.474;2022-12-07T00:59:36;5.82;;;3.85;;
45784;SDS011;31489;51.404;5.474;2022-12-07T01:02:05;4.78;;;3.47;;
45784;SDS011;31489;51.404;5.474;2022-12-07T01:04:32;4.75;;;3.33;;
45784;SDS011;31489;51.404;5.474;2022-12-07T01:06:59;5.50;;;3.90;;
45784;SDS011;31489;51.404;5.474;2022-12-07T01:09:25;5.65;;;3.30;;
45784;SDS011;31489;51.404;5.474;2022-12-07T01:11:50;6.00;;;4.03;;
45784;SDS011;31489;51.404;5.474;2022-12-07T01:14:16;6.57;;;3.40;;
45784;SDS011;31489;51.404;5.474;2022-12-07T01:16:43;9.25;;;3.60;;
45784;SDS011;31489;51.404;5.474;2022-12-07T01:19:09;3.65;;;3.30;;
45784;SDS011;31489;51.404;5.474;2022-12-07T01:21:34;5.00;;;3.60;;
45784;SDS011;31489;51.404;5.474;2022-12-07T01:24:03;8.27;;;3.50;;
45784;SDS011;31489;51.404;5.474;2022-12-07T01:26:30;5.97;;;3.47;;
45784;SDS011;31489;51.404;5.474;2022-12-07T01:28:56;6.32;;;3.20;;
45784;SDS011;31489;51.404;5.474;2022-12-07T01:31:24;4.72;;;3.00;;
45784;SDS011;31489;51.404;5.474;2022-12-07T01:33:52;4.60;;;3.40;;
45784;SDS011;31489;51.404;5.474;2022-12-07T01:36:20;4.72;;;3.25;;
45784;SDS011;31489;51.404;5.474;2022-12-07T01:38:48;8.18;;;3.65;;
45784;SDS011;31489;51.404;5.474;2022-12-07T01:41:19;5.88;;;3.45;;
45784;SDS011;31489;51.404;5.474;2022-12-07T01:49:18;5.60;;;3.05;;
45784;SDS011;31489;51.404;5.474;2022-12-07T01:54:54;4.07;;;3.00;;
45784;SDS011;31489;51.404;5.474;2022-12-07T01:57:24;8.73;;;2.83;;
45784;SDS011;31489;51.404;5.474;2022-12-07T01:59:51;5.78;;;2.95;;
45784;SDS011;31489;51.404;5.474;2022-12-07T02:02:20;3.90;;;2.70;;
45784;SDS011;31489;51.404;5.474;2022-12-07T02:04:51;5.53;;;3.03;;
45784;SDS011;31489;51.404;5.474;2022-12-07T02:07:18;3.00;;;2.78;;
45784;SDS011;31489;51.404;5.474;2022-12-07T02:09:46;6.68;;;3.40;;
45784;SDS011;31489;51.404;5.474;2022-12-07T02:12:11;3.30;;;2.90;;
45784;SDS011;31489;51.404;5.474;2022-12-07T02:14:37;8.65;;;3.30;;
45784;SDS011;31489;51.404;5.474;2022-12-07T02:17:06;4.13;;;3.05;;
45784;SDS011;31489;51.404;5.474;2022-12-07T02:20:06;5.00;;;3.10;;
45784;SDS011;31489;51.404;5.474;2022-12-07T02:25:22;6.85;;;3.30;;
45784;SDS011;31489;51.404;5.474;2022-12-07T02:28:06;3.67;;;2.78;;
45784;SDS011;31489;51.404;5.474;2022-12-07T02:30:57;4.38;;;2.80;;
45784;SDS011;31489;51.404;5.474;2022-12-07T02:33:31;5.43;;;2.95;;
45784;SDS011;31489;51.404;5.474;2022-12-07T02:36:20;6.32;;;3.05;;
45784;SDS011;31489;51.404;5.474;2022-12-07T02:41:44;6.70;;;2.70;;
45784;SDS011;31489;51.404;5.474;2022-12-07T02:44:13;5.32;;;2.85;;
45784;SDS011;31489;51.404;5.474;2022-12-07T02:46:52;5.25;;;2.60;;
45784;SDS011;31489;51.404;5.474;2022-12-07T02:49:35;5.40;;;2.78;;
45784;SDS011;31489;51.404;5.474;2022-12-07T02:52:03;4.75;;;2.78;;
45784;SDS011;31489;51.404;5.474;2022-12-07T02:54:28;5.60;;;2.65;;
45784;SDS011;31489;51.404;5.474;2022-12-07T03:13:29;7.60;;;3.35;;
45784;SDS011;31489;51.404;5.474;2022-12-07T03:16:11;8.35;;;2.40;;
45784;SDS011;31489;51.404;5.474;2022-12-07T03:21:54;4.15;;;2.33;;
45784;SDS011;31489;51.404;5.474;2022-12-07T03:24:26;4.65;;;2.50;;
45784;SDS011;31489;51.404;5.474;2022-12-07T03:26:58;7.97;;;2.25;;
45784;SDS011;31489;51.404;5.474;2022-12-07T03:29:32;4.82;;;2.72;;
45784;SDS011;31489;51.404;5.474;2022-12-07T03:32:06;4.38;;;2.00;;
45784;SDS011;31489;51.404;5.474;2022-12-07T03:37:29;7.95;;;2.28;;
45784;SDS011;31489;51.404;5.474;2022-12-07T03:42:50;6.07;;;2.25;;
45784;SDS011;31489;51.404;5.474;2022-12-07T03:45:17;4.55;;;2.20;;
45784;SDS011;31489;51.404;5.474;2022-12-07T03:47:48;3.60;;;2.22;;
45784;SDS011;31489;51.404;5.474;2022-12-07T03:51:06;7.25;;;2.90;;
45784;SDS011;31489;51.404;5.474;2022-12-07T03:53:59;6.28;;;2.55;;
45784;SDS011;31489;51.404;5.474;2022-12-07T03:56:44;5.10;;;2.30;;
45784;SDS011;31489;51.404;5.474;2022-12-07T03:59:11;5.45;;;2.20;;
45784;SDS011;31489;51.404;5.474;2022-12-07T04:01:41;6.85;;;2.38;;
45784;SDS011;31489;51.404;5.474;2022-12-07T04:04:08;7.63;;;2.33;;
45784;SDS011;31489;51.404;5.474;2022-12-07T04:06:33;3.80;;;2.30;;
45784;SDS011;31489;51.404;5.474;2022-12-07T04:08:59;4.45;;;2.08;;
45784;SDS011;31489;51.404;5.474;2022-12-07T04:11:25;3.53;;;2.20;;
45784;SDS011;31489;51.404;5.474;2022-12-07T04:13:50;4.90;;;2.17;;
45784;SDS011;31489;51.404;5.474;2022-12-07T04:16:34;5.68;;;2.22;;
45784;SDS011;31489;51.404;5.474;2022-12-07T04:19:00;3.20;;;2.45;;
45784;SDS011;31489;51.404;5.474;2022-12-07T04:21:25;4.63;;;2.15;;
45784;SDS011;31489;51.404;5.474;2022-12-07T04:23:51;5.75;;;2.45;;
45784;SDS011;31489;51.404;5.474;2022-12-07T04:26:16;3.85;;;2.25;;
45784;SDS011;31489;51.404;5.474;2022-12-07T04:28:42;6.88;;;2.42;;
45784;SDS011;31489;51.404;5.474;2022-12-07T04:31:08;4.93;;;2.10;;
45784;SDS011;31489;51.404;5.474;2022-12-07T04:33:34;4.88;;;2.22;;
45784;SDS011;31489;51.404;5.474;2022-12-07T04:36:00;4.00;;;2.00;;
45784;SDS011;31489;51.404;5.474;2022-12-07T04:38:26;5.25;;;2.35;;
45784;SDS011;31489;51.404;5.474;2022-12-07T04:40:51;6.30;;;2.30;;
45784;SDS011;31489;51.404;5.474;2022-12-07T04:43:17;6.60;;;2.20;;
45784;SDS011;31489;51.404;5.474;2022-12-07T04:45:46;6.93;;;2.13;;
45784;SDS011;31489;51.404;5.474;2022-12-07T04:48:12;4.60;;;2.00;;
45784;SDS011;31489;51.404;5.474;2022-12-07T04:50:38;3.20;;;2.20;;
45784;SDS011;31489;51.404;5.474;2022-12-07T04:53:03;4.05;;;1.98;;
45784;SDS011;31489;51.404;5.474;2022-12-07T04:55:29;4.35;;;2.05;;
45784;SDS011;31489;51.404;5.474;2022-12-07T04:57:54;3.20;;;2.05;;
45784;SDS011;31489;51.404;5.474;2022-12-07T05:00:20;4.57;;;2.10;;
45784;SDS011;31489;51.404;5.474;2022-12-07T05:02:46;5.53;;;2.05;;
45784;SDS011;31489;51.404;5.474;2022-12-07T05:05:11;2.70;;;2.13;;
45784;SDS011;31489;51.404;5.474;2022-12-07T05:07:37;6.78;;;2.25;;
45784;SDS011;31489;51.404;5.474;2022-12-07T05:10:03;4.85;;;2.30;;
45784;SDS011;31489;51.404;5.474;2022-12-07T05:12:29;3.72;;;2.20;;
45784;SDS011;31489;51.404;5.474;2022-12-07T05:14:55;2.55;;;1.65;;
45784;SDS011;31489;51.404;5.474;2022-12-07T05:17:20;4.57;;;1.85;;
45784;SDS011;31489;51.404;5.474;2022-12-07T05:19:46;6.05;;;2.17;;
45784;SDS011;31489;51.404;5.474;2022-12-07T05:22:11;6.10;;;2.33;;
45784;SDS011;31489;51.404;5.474;2022-12-07T05:24:38;4.97;;;2.10;;
45784;SDS011;31489;51.404;5.474;2022-12-07T05:27:04;4.68;;;1.98;;
45784;SDS011;31489;51.404;5.474;2022-12-07T05:29:29;5.25;;;2.00;;
45784;SDS011;31489;51.404;5.474;2022-12-07T05:31:55;5.13;;;1.90;;
45784;SDS011;31489;51.404;5.474;2022-12-07T05:34:20;4.55;;;1.90;;
45784;SDS011;31489;51.404;5.474;2022-12-07T05:36:46;4.85;;;2.00;;
45784;SDS011;31489;51.404;5.474;2022-12-07T05:39:12;6.45;;;2.22;;
45784;SDS011;31489;51.404;5.474;2022-12-07T05:41:37;5.53;;;2.08;;
45784;SDS011;31489;51.404;5.474;2022-12-07T05:44:21;5.25;;;1.80;;
45784;SDS011;31489;51.404;5.474;2022-12-07T05:46:47;4.63;;;1.98;;
45784;SDS011;31489;51.404;5.474;2022-12-07T05:49:12;6.95;;;1.80;;
45784;SDS011;31489;51.404;5.474;2022-12-07T05:51:38;6.43;;;2.10;;
45784;SDS011;31489;51.404;5.474;2022-12-07T05:54:04;4.22;;;1.85;;
45784;SDS011;31489;51.404;5.474;2022-12-07T05:56:29;6.32;;;2.00;;
45784;SDS011;31489;51.404;5.474;2022-12-07T05:58:55;6.43;;;2.00;;
45784;SDS011;31489;51.404;5.474;2022-12-07T06:01:39;6.60;;;1.98;;
45784;SDS011;31489;51.404;5.474;2022-12-07T06:04:05;8.00;;;1.98;;
45784;SDS011;31489;51.404;5.474;2022-12-07T06:06:31;2.55;;;1.70;;
45784;SDS011;31489;51.404;5.474;2022-12-07T06:08:56;4.93;;;1.38;;
45784;SDS011;31489;51.404;5.474;2022-12-07T06:11:22;8.13;;;1.88;;
45784;SDS011;31489;51.404;5.474;2022-12-07T06:14:06;4.93;;;1.75;;
45784;SDS011;31489;51.404;5.474;2022-12-07T06:16:31;3.72;;;1.70;;
45784;SDS011;31489;51.404;5.474;2022-12-07T06:18:57;9.02;;;1.92;;
45784;SDS011;31489;51.404;5.474;2022-12-07T06:21:23;6.03;;;1.65;;
45784;SDS011;31489;51.404;5.474;2022-12-07T06:23:50;4.28;;;1.70;;
45784;SDS011;31489;51.404;5.474;2022-12-07T06:26:16;4.38;;;1.70;;
45784;SDS011;31489;51.404;5.474;2022-12-07T06:28:41;7.03;;;1.48;;
45784;SDS011;31489;51.404;5.474;2022-12-07T06:31:07;4.07;;;1.67;;
45784;SDS011;31489;51.404;5.474;2022-12-07T06:33:33;4.65;;;1.80;;
45784;SDS011;31489;51.404;5.474;2022-12-07T06:36:02;2.13;;;1.50;;
45784;SDS011;31489;51.404;5.474;2022-12-07T06:38:28;4.60;;;2.05;;
45784;SDS011;31489;51.404;5.474;2022-12-07T06:40:53;6.63;;;2.10;;
45784;SDS011;31489;51.404;5.474;2022-12-07T06:43:19;4.57;;;1.88;;
45784;SDS011;31489;51.404;5.474;2022-12-07T06:45:45;10.02;;;1.77;;
45784;SDS011;31489;51.404;5.474;2022-12-07T06:48:10;3.10;;;1.65;;
45784;SDS011;31489;51.404;5.474;2022-12-07T06:50:37;6.38;;;1.95;;
45784;SDS011;31489;51.404;5.474;2022-12-07T06:53:03;3.80;;;1.85;;
45784;SDS011;31489;51.404;5.474;2022-12-07T06:55:28;7.20;;;2.33;;
45784;SDS011;31489;51.404;5.474;2022-12-07T06:57:54;9.27;;;2.40;;
45784;SDS011;31489;51.404;5.474;2022-12-07T07:00:20;4.35;;;2.33;;
45784;SDS011;31489;51.404;5.474;2022-12-07T07:02:45;7.40;;;3.35;;
45784;SDS011;31489;51.404;5.474;2022-12-07T07:05:11;10.13;;;3.72;;
45784;SDS011;31489;51.404;5.474;2022-12-07T07:07:37;8.13;;;3.88;;
45784;SDS011;31489;51.404;5.474;2022-12-07T07:10:02;9.95;;;3.80;;
45784;SDS011;31489;51.404;5.474;2022-12-07T07:12:28;10.88;;;4.75;;
45784;SDS011;31489;51.404;5.474;2022-12-07T07:14:54;8.88;;;4.07;;
45784;SDS011;31489;51.404;5.474;2022-12-07T07:17:19;8.15;;;4.00;;
45784;SDS011;31489;51.404;5.474;2022-12-07T07:19:45;7.30;;;3.40;;
45784;SDS011;31489;51.404;5.474;2022-12-07T07:22:11;7.30;;;3.47;;
45784;SDS011;31489;51.404;5.474;2022-12-07T07:24:36;8.05;;;3.97;;
45784;SDS011;31489;51.404;5.474;2022-12-07T07:27:02;5.85;;;3.30;;
45784;SDS011;31489;51.404;5.474;2022-12-07T07:29:28;8.20;;;3.78;;
45784;SDS011;31489;51.404;5.474;2022-12-07T07:31:53;9.25;;;3.42;;
45784;SDS011;31489;51.404;5.474;2022-12-07T07:34:19;7.22;;;4.10;;
45784;SDS011;31489;51.404;5.474;2022-12-07T07:36:45;7.00;;;3.78;;
45784;SDS011;31489;51.404;5.474;2022-12-07T07:39:10;12.45;;;4.10;;
45784;SDS011;31489;51.404;5.474;2022-12-07T07:41:39;8.30;;;3.88;;
45784;SDS011;31489;51.404;5.474;2022-12-07T07:44:04;6.45;;;3.88;;
45784;SDS011;31489;51.404;5.474;2022-12-07T07:46:30;8.05;;;4.25;;
45784;SDS011;31489;51.404;5.474;2022-12-07T07:48:58;8.55;;;4.05;;
45784;SDS011;31489;51.404;5.474;2022-12-07T07:51:23;8.32;;;3.63;;
45784;SDS011;31489;51.404;5.474;2022-12-07T07:53:49;7.20;;;3.88;;
45784;SDS011;31489;51.404;5.474;2022-12-07T07:56:15;7.05;;;3.95;;
45784;SDS011;31489;51.404;5.474;2022-12-07T07:58:40;9.02;;;4.40;;
45784;SDS011;31489;51.404;5.474;2022-12-07T08:01:06;7.20;;;4.28;;
45784;SDS011;31489;51.404;5.474;2022-12-07T08:03:32;5.80;;;4.05;;
45784;SDS011;31489;51.404;5.474;2022-12-07T08:05:58;6.85;;;4.07;;
45784;SDS011;31489;51.404;5.474;2022-12-07T08:08:24;6.43;;;3.83;;
45784;SDS011;31489;51.404;5.474;2022-12-07T08:10:49;5.55;;;3.85;;
45784;SDS011;31489;51.404;5.474;2022-12-07T08:13:15;6.53;;;4.15;;
45784;SDS011;31489;51.404;5.474;2022-12-07T08:15:45;8.60;;;4.03;;
45784;SDS011;31489;51.404;5.474;2022-12-07T08:18:12;5.82;;;3.72;;
45784;SDS011;31489;51.404;5.474;2022-12-07T08:20:39;8.10;;;4.10;;
45784;SDS011;31489;51.404;5.474;2022-12-07T08:23:06;9.50;;;4.50;;
45784;SDS011;31489;51.404;5.474;2022-12-07T08:25:33;6.78;;;4.05;;
45784;SDS011;31489;51.404;5.474;2022-12-07T08:27:59;6.63;;;4.07;;
45784;SDS011;31489;51.404;5.474;2022-12-07T08:30:25;9.75;;;4.32;;
45784;SDS011;31489;51.404;5.474;2022-12-07T08:32:52;7.35;;;3.65;;
45784;SDS011;31489;51.404;5.474;2022-12-07T08:35:18;6.25;;;3.72;;
45784;SDS011;31489;51.404;5.474;2022-12-07T08:37:43;5.85;;;3.70;;
45784;SDS011;31489;51.404;5.474;2022-12-07T08:40:10;9.70;;;4.07;;
45784;SDS011;31489;51.404;5.474;2022-12-07T08:42:40;6.90;;;4.00;;
45784;SDS011;31489;51.404;5.474;2022-12-07T08:45:07;9.02;;;4.38;;
45784;SDS011;31489;51.404;5.474;2022-12-07T08:47:36;7.57;;;3.92;;
45784;SDS011;31489;51.404;5.474;2022-12-07T08:50:05;8.90;;;3.97;;
45784;SDS011;31489;51.404;5.474;2022-12-07T08:52:32;9.48;;;3.60;;
45784;SDS011;31489;51.404;5.474;2022-12-07T08:54:58;7.60;;;3.95;;
45784;SDS011;31489;51.404;5.474;2022-12-07T08:57:26;10.30;;;4.53;;
45784;SDS011;31489;51.404;5.474;2022-12-07T08:59:53;7.70;;;3.53;;
45784;SDS011;31489;51.404;5.474;2022-12-07T09:02:18;7.63;;;3.63;;
45784;SDS011;31489;51.404;5.474;2022-12-07T09:04:44;8.05;;;4.10;;
45784;SDS011;31489;51.404;5.474;2022-12-07T09:07:10;11.30;;;3.45;;
45784;SDS011;31489;51.404;5.474;2022-12-07T09:09:39;8.65;;;3.40;;
45784;SDS011;31489;51.404;5.474;2022-12-07T09:12:04;14.13;;;4.35;;
45784;SDS011;31489;51.404;5.474;2022-12-07T09:14:30;9.05;;;3.78;;
45784;SDS011;31489;51.404;5.474;2022-12-07T09:17:04;7.50;;;3.42;;
45784;SDS011;31489;51.404;5.474;2022-12-07T09:19:34;6.35;;;3.40;;
45784;SDS011;31489;51.404;5.474;2022-12-07T09:22:00;8.13;;;3.30;;
45784;SDS011;31489;51.404;5.474;2022-12-07T09:24:26;6.78;;;3.72;;
45784;SDS011;31489;51.404;5.474;2022-12-07T09:26:52;5.95;;;3.47;;
45784;SDS011;31489;51.404;5.474;2022-12-07T09:29:18;8.40;;;3.33;;
45784;SDS011;31489;51.404;5.474;2022-12-07T09:31:43;8.02;;;3.55;;
45784;SDS011;31489;51.404;5.474;2022-12-07T09:34:09;6.38;;;3.35;;
45784;SDS011;31489;51.404;5.474;2022-12-07T09:36:35;6.85;;;3.38;;
45784;SDS011;31489;51.404;5.474;2022-12-07T09:39:01;9.18;;;2.97;;
45784;SDS011;31489;51.404;5.474;2022-12-07T09:41:27;6.47;;;3.20;;
45784;SDS011;31489;51.404;5.474;2022-12-07T09:44:03;7.28;;;3.20;;
45784;SDS011;31489;51.404;5.474;2022-12-07T09:46:33;7.63;;;3.55;;
45784;SDS011;31489;51.404;5.474;2022-12-07T09:49:04;7.32;;;3.40;;
45784;SDS011;31489;51.404;5.474;2022-12-07T09:51:34;5.10;;;2.92;;
45784;SDS011;31489;51.404;5.474;2022-12-07T09:54:00;6.97;;;3.28;;
45784;SDS011;31489;51.404;5.474;2022-12-07T09:56:28;7.82;;;3.00;;
45784;SDS011;31489;51.404;5.474;2022-12-07T09:58:58;5.90;;;2.90;;
45784;SDS011;31489;51.404;5.474;2022-12-07T10:01:29;4.65;;;2.67;;
45784;SDS011;31489;51.404;5.474;2022-12-07T10:06:45;7.70;;;3.38;;
45784;SDS011;31489;51.404;5.474;2022-12-07T10:09:13;6.97;;;3.15;;
45784;SDS011;31489;51.404;5.474;2022-12-07T10:14:25;5.95;;;2.63;;
45784;SDS011;31489;51.404;5.474;2022-12-07T10:16:53;8.18;;;3.15;;
45784;SDS011;31489;51.404;5.474;2022-12-07T10:19:32;8.68;;;4.45;;
45784;SDS011;31489;51.404;5.474;2022-12-07T10:22:09;6.47;;;3.28;;
45784;SDS011;31489;51.404;5.474;2022-12-07T10:24:40;6.55;;;3.30;;
45784;SDS011;31489;51.404;5.474;2022-12-07T10:27:18;5.50;;;3.03;;
45784;SDS011;31489;51.404;5.474;2022-12-07T10:29:47;6.35;;;2.58;;
45784;SDS011;31489;51.404;5.474;2022-12-07T10:34:41;8.65;;;3.35;;
45784;SDS011;31489;51.404;5.474;2022-12-07T10:45:07;5.57;;;2.60;;
45784;SDS011;31489;51.404;5.474;2022-12-07T10:59:24;7.18;;;2.78;;
45784;SDS011;31489;51.404;5.474;2022-12-07T11:02:25;8.07;;;2.70;;
45784;SDS011;31489;51.404;5.474;2022-12-07T11:08:15;6.53;;;3.03;;
45784;SDS011;31489;51.404;5.474;2022-12-07T11:11:19;10.10;;;2.80;;
45784;SDS011;31489;51.404;5.474;2022-12-07T11:14:15;7.43;;;3.03;;
45784;SDS011;31489;51.404;5.474;2022-12-07T11:17:07;7.70;;;2.90;;
45784;SDS011;31489;51.404;5.474;2022-12-07T11:19:54;6.80;;;2.15;;
45784;SDS011;31489;51.404;5.474;2022-12-07T11:22:44;6.10;;;2.90;;
45784;SDS011;31489;51.404;5.474;2022-12-07T11:25:32;6.72;;;2.40;;
45784;SDS011;31489;51.404;5.474;2022-12-07T11:28:20;6.72;;;2.63;;
45784;SDS011;31489;51.404;5.474;2022-12-07T11:33:44;7.22;;;3.22;;
45784;SDS011;31489;51.404;5.474;2022-12-07T11:42:16;5.03;;;2.50;;
45784;SDS011;31489;51.404;5.474;2022-12-07T11:44:50;6.13;;;2.47;;
45784;SDS011;31489;51.404;5.474;2022-12-07T11:50:28;3.45;;;1.90;;
45784;SDS011;31489;51.404;5.474;2022-12-07T12:03:40;5.40;;;1.92;;
45784;SDS011;31489;51.404;5.474;2022-12-07T12:06:14;8.60;;;2.72;;
45784;SDS011;31489;51.404;5.474;2022-12-07T12:09:26;3.90;;;2.00;;
45784;SDS011;31489;51.404;5.474;2022-12-07T12:23:07;4.45;;;1.40;;
45784;SDS011;31489;51.404;5.474;2022-12-07T12:25:50;3.90;;;1.50;;
45784;SDS011;31489;51.404;5.474;2022-12-07T12:31:08;4.63;;;1.63;;
45784;SDS011;31489;51.404;5.474;2022-12-07T12:33:38;3.80;;;1.55;;
45784;SDS011;31489;51.404;5.474;2022-12-07T12:44:37;10.52;;;2.78;;
45784;SDS011;31489;51.404;5.474;2022-12-07T12:47:01;4.53;;;1.45;;
45784;SDS011;31489;51.404;5.474;2022-12-07T12:49:40;7.28;;;1.98;;
45784;SDS011;31489;51.404;5.474;2022-12-07T12:55:01;7.38;;;1.50;;
45784;SDS011;31489;51.404;5.474;2022-12-07T12:57:36;7.50;;;1.73;;
45784;SDS011;31489;51.404;5.474;2022-12-07T13:00:23;4.50;;;1.50;;
45784;SDS011;31489;51.404;5.474;2022-12-07T13:02:56;5.40;;;1.65;;
45784;SDS011;31489;51.404;5.474;2022-12-07T13:05:28;6.85;;;1.75;;
45784;SDS011;31489;51.404;5.474;2022-12-07T13:07:59;4.90;;;1.40;;
45784;SDS011;31489;51.404;5.474;2022-12-07T13:29:06;2.80;;;1.60;;
45784;SDS011;31489;51.404;5.474;2022-12-07T13:34:03;6.18;;;1.88;;
45784;SDS011;31489;51.404;5.474;2022-12-07T13:36:31;3.50;;;1.40;;
45784;SDS011;31489;51.404;5.474;2022-12-07T13:39:22;4.45;;;1.40;;
45784;SDS011;31489;51.404;5.474;2022-12-07T13:41:52;2.53;;;1.30;;
45784;SDS011;31489;51.404;5.474;2022-12-07T13:44:20;4.20;;;1.55;;
45784;SDS011;31489;51.404;5.474;2022-12-07T13:46:55;4.90;;;1.58;;
45784;SDS011;31489;51.404;5.474;2022-12-07T13:49:27;3.33;;;1.35;;
45784;SDS011;31489;51.404;5.474;2022-12-07T13:51:55;9.25;;;2.28;;
45784;SDS011;31489;51.404;5.474;2022-12-07T13:54:43;6.65;;;1.50;;
45784;SDS011;31489;51.404;5.474;2022-12-07T13:57:15;7.38;;;1.55;;
45784;SDS011;31489;51.404;5.474;2022-12-07T13:59:41;5.82;;;1.70;;
45784;SDS011;31489;51.404;5.474;2022-12-07T14:02:21;4.07;;;1.50;;
45784;SDS011;31489;51.404;5.474;2022-12-07T14:04:52;4.88;;;1.38;;
45784;SDS011;31489;51.404;5.474;2022-12-07T14:07:30;5.40;;;1.45;;
45784;SDS011;31489;51.404;5.474;2022-12-07T14:10:22;2.85;;;1.40;;
45784;SDS011;31489;51.404;5.474;2022-12-07T14:12:52;4.28;;;1.60;;
45784;SDS011;31489;51.404;5.474;2022-12-07T14:15:23;4.93;;;1.42;;
45784;SDS011;31489;51.404;5.474;2022-12-07T14:17:52;2.85;;;1.77;;
45784;SDS011;31489;51.404;5.474;2022-12-07T14:20:38;6.35;;;1.70;;
45784;SDS011;31489;51.404;5.474;2022-12-07T14:23:05;2.23;;;1.67;;
45784;SDS011;31489;51.404;5.474;2022-12-07T14:25:50;2.33;;;1.52;;
45784;SDS011;31489;51.404;5.474;2022-12-07T14:28:25;3.63;;;1.60;;
45784;SDS011;31489;51.404;5.474;2022-12-07T14:30:53;4.07;;;1.88;;
45784;SDS011;31489;51.404;5.474;2022-12-07T14:33:18;3.78;;;1.55;;
45784;SDS011;31489;51.404;5.474;2022-12-07T14:35:45;4.28;;;1.48;;
45784;SDS011;31489;51.404;5.474;2022-12-07T14:38:10;6.75;;;2.35;;
45784;SDS011;31489;51.404;5.474;2022-12-07T14:40:36;2.60;;;1.20;;
45784;SDS011;31489;51.404;5.474;2022-12-07T14:43:12;4.75;;;1.48;;
45784;SDS011;31489;51.404;5.474;2022-12-07T14:45:41;4.88;;;1.65;;
45784;SDS011;31489;51.404;5.474;2022-12-07T14:48:07;6.20;;;2.00;;
45784;SDS011;31489;51.404;5.474;2022-12-07T14:50:37;7.43;;;2.83;;
45784;SDS011;31489;51.404;5.474;2022-12-07T14:53:14;3.53;;;1.90;;
45784;SDS011;31489;51.404;5.474;2022-12-07T14:55:41;4.23;;;1.70;;
45784;SDS011;31489;51.404;5.474;2022-12-07T14:58:11;7.35;;;1.70;;
45784;SDS011;31489;51.404;5.474;2022-12-07T15:00:41;6.07;;;1.92;;
45784;SDS011;31489;51.404;5.474;2022-12-07T15:03:07;4.32;;;1.73;;
45784;SDS011;31489;51.404;5.474;2022-12-07T15:05:33;5.40;;;1.70;;
45784;SDS011;31489;51.404;5.474;2022-12-07T15:07:59;5.13;;;1.67;;
45784;SDS011;31489;51.404;5.474;2022-12-07T15:10:26;5.00;;;1.60;;
45784;SDS011;31489;51.404;5.474;2022-12-07T15:13:00;4.80;;;1.70;;
45784;SDS011;31489;51.404;5.474;2022-12-07T15:15:49;6.45;;;2.13;;
45784;SDS011;31489;51.404;5.474;2022-12-07T15:18:16;7.60;;;2.83;;
45784;SDS011;31489;51.404;5.474;2022-12-07T15:20:44;10.50;;;3.53;;
45784;SDS011;31489;51.404;5.474;2022-12-07T15:23:10;9.02;;;3.75;;
45784;SDS011;31489;51.404;5.474;2022-12-07T15:25:39;7.95;;;2.92;;
45784;SDS011;31489;51.404;5.474;2022-12-07T15:28:06;8.32;;;2.63;;
45784;SDS011;31489;51.404;5.474;2022-12-07T15:30:32;6.35;;;2.40;;
45784;SDS011;31489;51.404;5.474;2022-12-07T15:32:57;6.55;;;2.80;;
45784;SDS011;31489;51.404;5.474;2022-12-07T15:35:23;5.55;;;2.67;;
45784;SDS011;31489;51.404;5.474;2022-12-07T15:37:49;3.55;;;1.77;;
45784;SDS011;31489;51.404;5.474;2022-12-07T15:40:14;2.95;;;1.50;;
45784;SDS011;31489;51.404;5.474;2022-12-07T15:42:40;3.78;;;1.38;;
45784;SDS011;31489;51.404;5.474;2022-12-07T15:45:06;3.92;;;1.70;;
45784;SDS011;31489;51.404;5.474;2022-12-07T15:47:35;3.60;;;2.03;;
45784;SDS011;31489;51.404;5.474;2022-12-07T15:50:03;5.40;;;2.15;;
45784;SDS011;31489;51.404;5.474;2022-12-07T15:52:29;4.78;;;1.42;;
45784;SDS011;31489;51.404;5.474;2022-12-07T15:54:56;4.60;;;1.50;;
45784;SDS011;31489;51.404;5.474;2022-12-07T15:57:21;4.85;;;1.50;;
45784;SDS011;31489;51.404;5.474;2022-12-07T15:59:47;2.30;;;1.30;;
45784;SDS011;31489;51.404;5.474;2022-12-07T16:02:13;2.90;;;1.52;;
45784;SDS011;31489;51.404;5.474;2022-12-07T16:04:39;5.50;;;1.77;;
45784;SDS011;31489;51.404;5.474;2022-12-07T16:07:04;3.15;;;1.50;;
45784;SDS011;31489;51.404;5.474;2022-12-07T16:09:30;4.25;;;1.63;;
45784;SDS011;31489;51.404;5.474;2022-12-07T16:11:56;4.55;;;1.80;;
45784;SDS011;31489;51.404;5.474;2022-12-07T16:14:22;6.95;;;2.05;;
45784;SDS011;31489;51.404;5.474;2022-12-07T16:16:48;3.30;;;1.65;;
45784;SDS011;31489;51.404;5.474;2022-12-07T16:19:14;2.83;;;1.58;;
45784;SDS011;31489;51.404;5.474;2022-12-07T16:21:39;6.47;;;1.73;;
45784;SDS011;31489;51.404;5.474;2022-12-07T16:24:06;4.65;;;1.77;;
45784;SDS011;31489;51.404;5.474;2022-12-07T16:26:32;3.92;;;2.30;;
45784;SDS011;31489;51.404;5.474;2022-12-07T16:29:01;4.30;;;2.20;;
45784;SDS011;31489;51.404;5.474;2022-12-07T16:31:28;7.80;;;2.20;;
45784;SDS011;31489;51.404;5.474;2022-12-07T16:33:54;6.32;;;2.10;;
45784;SDS011;31489;51.404;5.474;2022-12-07T16:36:21;4.68;;;2.38;;
45784;SDS011;31489;51.404;5.474;2022-12-07T16:38:54;7.00;;;3.58;;
45784;SDS011;31489;51.404;5.474;2022-12-07T16:41:20;5.90;;;2.88;;
45784;SDS011;31489;51.404;5.474;2022-12-07T16:43:46;6.53;;;2.63;;
45784;SDS011;31489;51.404;5.474;2022-12-07T16:46:12;4.75;;;2.40;;
45784;SDS011;31489;51.404;5.474;2022-12-07T16:48:38;5.65;;;2.13;;
45784;SDS011;31489;51.404;5.474;2022-12-07T16:51:05;3.67;;;2.30;;
45784;SDS011;31489;51.404;5.474;2022-12-07T16:53:33;6.05;;;2.00;;
45784;SDS011;31489;51.404;5.474;2022-12-07T16:56:00;4.07;;;2.03;;
45784;SDS011;31489;51.404;5.474;2022-12-07T16:58:26;5.30;;;2.75;;
45784;SDS011;31489;51.404;5.474;2022-12-07T17:00:53;3.97;;;1.60;;
45784;SDS011;31489;51.404;5.474;2022-12-07T17:03:19;5.72;;;2.30;;
45784;SDS011;31489;51.404;5.474;2022-12-07T17:05:45;2.40;;;2.20;;
45784;SDS011;31489;51.404;5.474;2022-12-07T17:08:11;3.38;;;1.95;;
45784;SDS011;31489;51.404;5.474;2022-12-07T17:10:40;5.90;;;2.10;;
45784;SDS011;31489;51.404;5.474;2022-12-07T17:13:11;4.75;;;2.20;;
45784;SDS011;31489;51.404;5.474;2022-12-07T17:16:13;3.90;;;1.85;;
45784;SDS011;31489;51.404;5.474;2022-12-07T17:18:38;2.55;;;1.95;;
45784;SDS011;31489;51.404;5.474;2022-12-07T17:21:05;4.22;;;2.20;;